createdAt,value
2018-11-22T00:00:24.169Z,2.50
2018-11-22T00:02:54.098Z,2.40
2018-11-22T00:05:22.571Z,2.30
2018-11-22T00:07:52.101Z,2.30
2018-11-22T00:10:21.005Z,2.30
2018-11-22T00:12:49.511Z,2.40
2018-11-22T00:15:18.536Z,2.50
2018-11-22T00:17:47.443Z,2.50
2018-11-22T00:20:15.868Z,2.50
2018-11-22T00:22:44.282Z,2.50
2018-11-22T00:25:13.697Z,2.50
2018-11-22T00:27:42.217Z,2.40
2018-11-22T00:30:13.028Z,2.40
2018-11-22T00:32:41.528Z,2.40
2018-11-22T00:35:11.726Z,2.40
2018-11-22T00:37:41.087Z,2.30
2018-11-22T00:40:12.260Z,2.40
2018-11-22T00:42:41.251Z,2.40
2018-11-22T00:45:11.781Z,2.40
2018-11-22T00:47:40.244Z,2.30
2018-11-22T00:50:10.804Z,2.30
2018-11-22T00:52:39.470Z,2.30
2018-11-22T00:55:09.711Z,2.20
2018-11-22T00:57:38.480Z,2.20
2018-11-22T01:00:14.030Z,2.30
2018-11-22T01:02:42.815Z,2.20
2018-11-22T01:05:11.514Z,2.20
2018-11-22T01:07:40.192Z,2.30
2018-11-22T01:10:11.443Z,2.20
2018-11-22T01:12:39.861Z,2.20
2018-11-22T01:15:08.526Z,2.20
2018-11-22T01:17:36.983Z,2.30
2018-11-22T01:20:07.370Z,2.20
2018-11-22T01:22:35.794Z,2.20
2018-11-22T01:25:05.043Z,2.30
2018-11-22T01:27:33.461Z,2.40
2018-11-22T01:30:02.254Z,2.30
2018-11-22T01:32:30.699Z,2.30
2018-11-22T01:34:59.147Z,2.40
2018-11-22T01:37:27.567Z,2.40
2018-11-22T01:39:55.989Z,2.40
2018-11-22T01:42:24.402Z,2.40
2018-11-22T01:44:52.825Z,2.50
2018-11-22T01:47:21.225Z,2.50
2018-11-22T01:49:49.672Z,2.60
2018-11-22T01:52:18.088Z,2.60
2018-11-22T01:54:46.514Z,2.60
2018-11-22T01:57:14.918Z,2.60
2018-11-22T01:59:43.350Z,2.50
2018-11-22T02:02:11.787Z,2.50
2018-11-22T02:04:40.215Z,2.60
2018-11-22T02:07:08.642Z,2.60
2018-11-22T02:09:37.059Z,2.60
2018-11-22T02:12:05.481Z,2.50
2018-11-22T02:14:33.895Z,2.50
2018-11-22T02:17:02.309Z,2.50
2018-11-22T02:19:30.813Z,2.50
2018-11-22T02:21:59.218Z,2.50
2018-11-22T02:24:27.662Z,2.50
2018-11-22T02:26:56.095Z,2.50
2018-11-22T02:29:24.522Z,2.50
2018-11-22T02:31:52.936Z,2.50
2018-11-22T02:34:21.372Z,2.50
2018-11-22T02:36:49.817Z,2.40
2018-11-22T02:39:18.222Z,2.40
2018-11-22T02:41:46.640Z,2.40
2018-11-22T02:44:15.039Z,2.30
2018-11-22T02:46:43.472Z,2.30
2018-11-22T02:49:11.900Z,2.30
2018-11-22T02:51:40.303Z,2.30
2018-11-22T02:54:08.728Z,2.40
2018-11-22T02:56:37.209Z,2.50
2018-11-22T02:59:05.635Z,2.50
2018-11-22T03:01:34.047Z,2.50
2018-11-22T03:04:02.827Z,2.50
2018-11-22T03:06:31.236Z,2.50
2018-11-22T03:08:59.638Z,2.40
2018-11-22T03:11:28.073Z,2.40
2018-11-22T03:13:56.493Z,2.40
2018-11-22T03:16:24.921Z,2.40
2018-11-22T03:18:53.334Z,2.30
2018-11-22T03:21:26.929Z,2.30
2018-11-22T03:23:55.366Z,2.30
2018-11-22T03:26:23.818Z,2.30
2018-11-22T03:28:52.249Z,2.30
2018-11-22T03:31:20.687Z,2.30
2018-11-22T03:33:49.087Z,2.20
2018-11-22T03:36:17.517Z,2.30
2018-11-22T03:38:45.921Z,2.30
2018-11-22T03:41:14.354Z,2.30
2018-11-22T03:43:42.789Z,2.30
2018-11-22T03:46:11.216Z,2.30
2018-11-22T03:48:39.634Z,2.40
2018-11-22T03:51:08.062Z,2.40
2018-11-22T03:53:36.464Z,2.40
2018-11-22T03:56:05.080Z,2.40
2018-11-22T03:58:33.504Z,2.40
2018-11-22T04:01:01.920Z,2.30
2018-11-22T04:03:30.617Z,2.20
2018-11-22T04:05:59.037Z,2.30
2018-11-22T04:08:27.455Z,2.30
2018-11-22T04:10:55.878Z,2.30
2018-11-22T04:13:24.298Z,2.30
2018-11-22T04:15:52.730Z,2.20
2018-11-22T04:18:21.129Z,2.30
2018-11-22T04:20:49.545Z,2.40
2018-11-22T04:23:17.960Z,2.40
2018-11-22T04:25:46.383Z,2.50
2018-11-22T04:28:14.797Z,2.50
2018-11-22T04:30:43.278Z,2.60
2018-11-22T04:33:11.693Z,2.50
2018-11-22T04:35:40.138Z,2.50
2018-11-22T04:38:08.562Z,2.50
2018-11-22T04:40:36.971Z,2.60
2018-11-22T04:43:05.478Z,2.60
2018-11-22T04:45:33.878Z,2.60
2018-11-22T04:48:03.620Z,2.50
2018-11-22T04:50:34.037Z,2.50
2018-11-22T04:53:02.466Z,2.40
2018-11-22T04:55:30.987Z,2.40
2018-11-22T04:57:59.419Z,2.40
2018-11-22T05:00:28.051Z,2.40
2018-11-22T05:02:56.470Z,2.40
2018-11-22T05:05:26.473Z,2.30
2018-11-22T05:07:54.883Z,2.30
2018-11-22T05:10:24.757Z,2.30
2018-11-22T05:12:53.535Z,2.30
2018-11-22T05:15:23.458Z,2.30
2018-11-22T05:17:51.896Z,2.30
2018-11-22T05:20:21.702Z,2.40
2018-11-22T05:22:50.841Z,2.40
2018-11-22T05:25:19.262Z,2.40
2018-11-22T05:27:47.699Z,2.40
2018-11-22T05:30:17.714Z,2.40
2018-11-22T05:32:46.144Z,2.50
2018-11-22T05:35:15.209Z,2.50
2018-11-22T05:37:43.627Z,2.50
2018-11-22T05:40:20.054Z,2.50
2018-11-22T05:42:48.630Z,2.50
2018-11-22T05:45:18.400Z,2.50
2018-11-22T05:47:46.810Z,2.40
2018-11-22T05:50:16.540Z,2.40
2018-11-22T05:52:45.729Z,2.40
2018-11-22T05:55:14.456Z,2.40
2018-11-22T05:57:42.870Z,2.40
2018-11-22T06:00:13.526Z,2.30
2018-11-22T06:02:41.940Z,2.40
2018-11-22T06:05:11.730Z,2.40
2018-11-22T06:07:40.166Z,2.40
2018-11-22T06:10:15.213Z,2.30
2018-11-22T06:12:43.824Z,2.30
2018-11-22T06:15:13.019Z,2.40
2018-11-22T06:17:42.109Z,2.50
2018-11-22T06:20:16.149Z,2.40
2018-11-22T06:22:44.915Z,2.50
2018-11-22T06:25:14.878Z,2.50
2018-11-22T06:27:43.306Z,2.50
2018-11-22T06:30:14.793Z,2.40
2018-11-22T06:32:43.404Z,2.40
2018-11-22T06:35:11.959Z,2.40
2018-11-22T06:37:40.599Z,2.50
2018-11-22T06:40:10.812Z,2.50
2018-11-22T06:42:39.603Z,2.50
2018-11-22T06:45:11.415Z,2.50
2018-11-22T06:47:39.859Z,2.60
2018-11-22T06:50:09.119Z,2.60
2018-11-22T06:52:37.482Z,2.60
2018-11-22T06:55:07.500Z,2.70
2018-11-22T06:57:35.950Z,2.70
2018-11-22T07:00:04.742Z,2.70
2018-11-22T07:02:33.177Z,2.70
2018-11-22T07:05:01.605Z,2.60
2018-11-22T07:07:30.008Z,2.60
2018-11-22T07:09:58.440Z,2.60
2018-11-22T07:12:26.851Z,2.70
2018-11-22T07:14:55.277Z,2.80
2018-11-22T07:17:23.722Z,2.80
2018-11-22T07:19:52.135Z,2.90
2018-11-22T07:22:20.554Z,2.90
2018-11-22T07:24:48.972Z,3.00
2018-11-22T07:27:17.391Z,3.00
2018-11-22T07:29:45.803Z,2.90
2018-11-22T07:32:14.333Z,2.90
2018-11-22T07:34:42.829Z,3.00
2018-11-22T07:37:11.274Z,3.10
2018-11-22T07:39:39.715Z,3.10
2018-11-22T07:42:08.487Z,3.10
2018-11-22T07:44:36.891Z,3.00
2018-11-22T07:47:05.366Z,3.10
2018-11-22T07:49:33.782Z,3.10
2018-11-22T07:52:02.206Z,3.10
2018-11-22T07:54:30.685Z,3.20
2018-11-22T07:56:59.114Z,3.20
2018-11-22T07:59:27.603Z,3.30
2018-11-22T08:01:56.091Z,3.20
2018-11-22T08:04:24.518Z,3.20
2018-11-22T08:06:52.950Z,3.20
2018-11-22T08:09:21.355Z,3.20
2018-11-22T08:11:49.783Z,3.10
2018-11-22T08:14:18.192Z,3.00
2018-11-22T08:16:46.665Z,3.10
2018-11-22T08:19:15.082Z,3.20
2018-11-22T08:21:43.525Z,3.20
2018-11-22T08:24:11.925Z,3.20
2018-11-22T08:26:40.346Z,3.30
2018-11-22T08:29:08.850Z,3.40
2018-11-22T08:31:37.266Z,3.40
2018-11-22T08:34:05.697Z,3.50
2018-11-22T08:36:34.105Z,3.50
2018-11-22T08:39:02.598Z,3.60
2018-11-22T08:41:31.089Z,3.60
2018-11-22T08:43:59.495Z,3.60
2018-11-22T08:46:27.919Z,3.70
2018-11-22T08:48:56.338Z,3.80
2018-11-22T08:51:24.747Z,3.80
2018-11-22T08:53:53.170Z,3.90
2018-11-22T08:56:21.582Z,4.00
2018-11-22T08:58:50.002Z,4.00
2018-11-22T12:17:23.328Z,6.00
2018-11-22T12:19:51.795Z,5.90
2018-11-22T12:22:20.247Z,5.90
2018-11-22T12:24:48.702Z,5.80
2018-11-22T12:27:17.163Z,5.80
2018-11-22T12:29:45.640Z,5.80
2018-11-22T12:32:19.592Z,5.70
2018-11-22T12:34:53.207Z,5.80
2018-11-22T12:37:26.999Z,5.80
2018-11-22T12:39:55.457Z,5.90
2018-11-22T12:42:23.925Z,5.70
2018-11-22T12:44:55.240Z,5.70
2018-11-22T12:47:23.703Z,5.60
2018-11-22T12:49:52.156Z,5.60
2018-11-22T12:52:20.710Z,5.60
2018-11-22T12:54:49.157Z,5.60
2018-11-22T12:57:17.644Z,5.60
2018-11-22T12:59:46.103Z,5.50
2018-11-22T13:02:18.272Z,5.50
2018-11-22T13:04:43.079Z,5.50
2018-11-22T13:07:11.543Z,5.40
2018-11-22T13:09:40.011Z,5.40
2018-11-22T13:12:08.471Z,5.50
2018-11-22T13:14:36.933Z,5.60
2018-11-22T13:17:05.931Z,5.60
2018-11-22T13:19:34.432Z,5.70
2018-11-22T13:22:02.899Z,5.70
2018-11-22T13:24:31.379Z,5.70
2018-11-22T13:26:59.852Z,5.70
2018-11-22T13:29:28.331Z,5.80
2018-11-22T13:31:56.895Z,5.80
2018-11-22T13:34:25.366Z,5.70
2018-11-22T13:36:53.896Z,5.70
2018-11-22T13:39:22.356Z,5.70
2018-11-22T13:41:50.823Z,5.60
2018-11-22T13:44:19.298Z,5.60
2018-11-22T13:46:47.769Z,5.50
2018-11-22T13:49:16.263Z,5.50
2018-11-22T13:51:44.739Z,5.50
2018-11-22T13:54:13.197Z,5.50
2018-11-22T13:56:41.660Z,5.40
2018-11-22T13:59:10.115Z,5.40
2018-11-22T14:01:38.601Z,5.40
2018-11-22T14:04:07.065Z,5.40
2018-11-22T14:06:35.532Z,5.30
2018-11-22T14:09:04.921Z,5.40
2018-11-22T14:11:33.779Z,5.30
2018-11-22T14:14:02.235Z,5.30
2018-11-22T14:16:30.707Z,5.20
2018-11-22T14:18:59.181Z,5.10
2018-11-22T14:21:27.633Z,5.10
2018-11-22T14:23:56.087Z,5.00
2018-11-22T14:26:24.532Z,5.00
2018-11-22T14:28:53.010Z,5.00
2018-11-22T14:31:21.498Z,5.00
2018-11-22T14:33:49.970Z,5.00
2018-11-22T14:36:18.428Z,5.00
2018-11-22T14:38:46.956Z,5.00
2018-11-22T14:41:15.399Z,5.00
2018-11-22T14:43:43.862Z,4.90
2018-11-22T14:46:12.326Z,4.90
2018-11-22T14:48:40.784Z,4.90
2018-11-22T14:51:28.637Z,4.80
2018-11-22T14:53:57.134Z,4.70
2018-11-22T14:56:25.587Z,4.70
2018-11-22T14:58:54.188Z,4.70
2018-11-22T15:01:22.647Z,4.70
2018-11-22T15:03:51.115Z,4.60
2018-11-22T15:06:19.583Z,4.60
2018-11-22T15:08:48.052Z,4.50
2018-11-22T15:11:16.527Z,4.50
2018-11-22T15:13:44.982Z,4.40
2018-11-22T15:16:13.431Z,4.50
2018-11-22T15:18:41.899Z,4.40
2018-11-22T15:21:10.367Z,4.50
2018-11-22T15:23:38.822Z,4.40
2018-11-22T15:26:07.280Z,4.40
2018-11-22T15:28:35.736Z,4.40
2018-11-22T15:31:04.321Z,4.40
2018-11-22T15:33:32.784Z,4.40
2018-11-22T15:36:01.251Z,4.30
2018-11-22T15:38:29.731Z,4.30
2018-11-22T15:40:58.376Z,4.30
2018-11-22T15:43:26.948Z,4.20
2018-11-22T15:45:55.827Z,4.20
2018-11-22T15:48:24.309Z,4.20
2018-11-22T15:50:52.764Z,4.20
2018-11-22T15:53:21.211Z,4.30
2018-11-22T15:55:49.682Z,4.30
2018-11-22T15:58:18.143Z,4.30
2018-11-22T16:00:46.608Z,4.30
2018-11-22T16:03:15.071Z,4.30
2018-11-22T16:05:43.539Z,4.20
2018-11-22T16:08:11.992Z,4.20
2018-11-22T16:10:40.439Z,4.20
2018-11-22T16:13:10.334Z,4.20
2018-11-22T16:15:41.894Z,4.20
2018-11-22T16:18:10.574Z,4.20
2018-11-22T16:20:39.172Z,4.20
2018-11-22T16:23:07.705Z,4.10
2018-11-22T16:25:36.168Z,4.10
2018-11-22T16:28:04.895Z,4.10
2018-11-22T16:30:34.116Z,4.10
2018-11-22T16:33:02.655Z,4.00
2018-11-22T16:35:33.567Z,3.90
2018-11-22T16:38:00.323Z,3.90
2018-11-22T16:40:29.498Z,4.00
2018-11-22T16:42:59.277Z,4.00
2018-11-22T16:45:28.995Z,4.00
2018-11-22T16:47:58.615Z,4.00
2018-11-22T16:50:28.179Z,4.00
2018-11-22T16:52:56.788Z,4.00
2018-11-22T16:55:25.979Z,4.00
2018-11-22T16:57:55.497Z,4.00
2018-11-22T17:00:27.003Z,4.00
2018-11-22T17:02:56.868Z,4.00
2018-11-22T17:05:25.571Z,3.90
2018-11-22T17:07:54.053Z,4.00
2018-11-22T17:10:23.839Z,4.00
2018-11-22T17:12:53.546Z,3.90
2018-11-22T17:15:23.470Z,3.90
2018-11-22T17:17:52.459Z,3.90
2018-11-22T17:20:21.751Z,4.00
2018-11-22T17:22:50.833Z,4.00
2018-11-22T17:25:21.506Z,4.00
2018-11-22T17:27:51.408Z,4.00
2018-11-22T17:30:21.457Z,3.90
2018-11-22T17:32:49.955Z,3.90
2018-11-22T17:35:20.018Z,3.90
2018-11-22T17:37:48.621Z,3.90
2018-11-22T17:40:25.591Z,4.00
2018-11-22T17:42:54.116Z,4.00
2018-11-22T17:45:25.926Z,4.00
2018-11-22T17:47:54.503Z,4.10
2018-11-22T17:50:24.735Z,4.00
2018-11-22T17:52:53.219Z,4.00
2018-11-22T17:55:23.114Z,4.00
2018-11-22T17:57:51.630Z,4.00
2018-11-22T18:00:22.023Z,4.00
2018-11-22T18:02:51.648Z,4.00
2018-11-22T18:05:23.528Z,4.00
2018-11-22T18:07:48.644Z,4.00
2018-11-22T18:10:19.640Z,4.00
2018-11-22T18:12:48.835Z,4.00
2018-11-22T18:15:18.411Z,4.00
2018-11-22T18:17:47.132Z,3.90
2018-11-22T18:20:17.955Z,3.90
2018-11-22T18:22:47.156Z,3.90
2018-11-22T18:25:19.963Z,3.90
2018-11-22T18:27:48.416Z,3.80
2018-11-22T18:30:19.684Z,3.80
2018-11-22T18:32:49.818Z,3.80
2018-11-22T18:35:18.301Z,3.70
2018-11-22T18:37:46.784Z,3.80
2018-11-22T18:40:19.325Z,3.80
2018-11-22T18:42:48.739Z,3.80
2018-11-22T18:45:21.435Z,3.80
2018-11-22T18:47:49.910Z,3.80
2018-11-22T18:50:20.852Z,3.80
2018-11-22T18:52:49.381Z,3.80
2018-11-22T18:55:17.860Z,3.80
2018-11-22T18:57:46.688Z,3.80
2018-11-22T19:00:21.404Z,3.80
2018-11-22T19:02:50.094Z,3.80
2018-11-22T19:05:18.963Z,3.80
2018-11-22T19:07:48.600Z,3.80
2018-11-22T19:10:20.782Z,3.80
2018-11-22T19:12:50.264Z,3.80
2018-11-22T19:15:20.089Z,3.90
2018-11-22T19:17:48.979Z,3.90
2018-11-22T19:20:21.244Z,3.80
2018-11-22T19:22:50.442Z,3.80
2018-11-22T19:25:19.547Z,3.80
2018-11-22T19:27:48.336Z,3.80
2018-11-22T19:30:20.077Z,3.70
2018-11-22T19:32:49.488Z,3.70
2018-11-22T19:35:19.206Z,3.80
2018-11-22T19:37:48.089Z,3.80
2018-11-22T19:40:18.707Z,3.80
2018-11-22T19:42:48.640Z,3.80
2018-11-22T19:45:18.338Z,3.70
2018-11-22T19:47:47.244Z,3.70
2018-11-22T19:50:17.168Z,3.60
2018-11-22T19:52:46.207Z,3.60
2018-11-22T19:55:16.403Z,3.70
2018-11-22T19:57:46.287Z,3.70
2018-11-22T20:00:15.899Z,3.80
2018-11-22T20:02:44.983Z,3.80
2018-11-22T20:05:14.687Z,3.80
2018-11-22T20:07:44.107Z,3.90
2018-11-22T20:10:15.358Z,3.90
2018-11-22T20:12:44.131Z,3.90
2018-11-22T20:15:13.249Z,3.90
2018-11-22T20:17:42.123Z,3.80
2018-11-22T20:20:11.916Z,3.70
2018-11-22T20:22:41.021Z,3.70
2018-11-22T20:25:09.687Z,3.70
2018-11-22T20:27:38.587Z,3.70
2018-11-22T20:30:13.928Z,3.70
2018-11-22T20:32:42.615Z,3.60
2018-11-22T20:35:13.284Z,3.70
2018-11-22T20:37:42.048Z,3.70
2018-11-22T20:40:11.408Z,3.70
2018-11-22T20:42:40.247Z,3.70
2018-11-22T20:45:10.768Z,3.60
2018-11-22T20:47:39.968Z,3.50
2018-11-22T20:50:10.680Z,3.50
2018-11-22T20:52:39.152Z,3.50
2018-11-22T20:55:09.663Z,3.60
2018-11-22T20:57:38.123Z,3.60
2018-11-22T21:00:09.991Z,3.60
2018-11-22T21:02:38.503Z,3.60
2018-11-22T21:05:08.158Z,3.60
2018-11-22T21:07:36.673Z,3.70
2018-11-22T21:10:06.923Z,3.70
2018-11-22T21:12:35.552Z,3.60
2018-11-22T21:15:04.432Z,3.60
2018-11-22T21:17:32.935Z,3.60
2018-11-22T21:20:01.411Z,3.60
2018-11-22T21:22:30.165Z,3.60
2018-11-22T21:24:58.619Z,3.60
2018-11-22T21:27:27.092Z,3.60
2018-11-22T21:29:55.565Z,3.60
2018-11-22T21:32:24.042Z,3.70
2018-11-22T21:34:52.505Z,3.70
2018-11-22T21:37:20.983Z,3.70
2018-11-22T21:39:49.443Z,3.70
2018-11-22T21:42:17.911Z,3.80
2018-11-22T21:44:46.371Z,3.80
2018-11-22T21:47:14.858Z,3.80
2018-11-22T21:49:43.315Z,3.80
2018-11-22T21:52:11.766Z,3.80
2018-11-22T21:54:40.232Z,3.80
2018-11-22T21:57:08.699Z,3.80
2018-11-22T21:59:37.168Z,3.80
2018-11-22T22:02:05.734Z,3.90
2018-11-22T22:04:34.179Z,3.80
2018-11-22T22:07:02.636Z,3.80
2018-11-22T22:09:31.129Z,3.80
2018-11-22T22:11:59.583Z,3.70
2018-11-22T22:14:28.379Z,3.80
2018-11-22T22:16:56.835Z,3.80
2018-11-22T22:19:25.295Z,3.80
2018-11-22T22:21:53.755Z,3.70
2018-11-22T22:24:22.212Z,3.70
2018-11-22T22:26:50.683Z,3.70
2018-11-22T22:29:19.140Z,3.70
2018-11-22T22:31:47.659Z,3.60
2018-11-22T22:34:16.127Z,3.60
2018-11-22T22:36:44.567Z,3.60
2018-11-22T22:39:13.287Z,3.60
2018-11-22T22:41:41.735Z,3.60
2018-11-22T22:44:10.204Z,3.60
2018-11-22T22:46:38.687Z,3.60
2018-11-22T22:49:07.252Z,3.60
2018-11-22T22:51:35.722Z,3.60
2018-11-22T22:54:04.210Z,3.60
2018-11-22T22:56:33.065Z,3.60
2018-11-22T22:59:01.526Z,3.50
2018-11-22T23:01:30.045Z,3.50
2018-11-22T23:03:58.508Z,3.40
2018-11-22T23:06:26.966Z,3.40
2018-11-22T23:08:55.435Z,3.60
2018-11-22T23:11:23.951Z,3.60
2018-11-22T23:13:52.415Z,3.60
2018-11-22T23:16:20.872Z,3.70
2018-11-22T23:18:49.328Z,3.70
2018-11-22T23:21:17.801Z,3.70
2018-11-22T23:23:46.255Z,3.70
2018-11-22T23:26:14.719Z,3.60
2018-11-22T23:28:43.199Z,3.60
2018-11-22T23:31:11.659Z,3.60
2018-11-22T23:33:40.119Z,3.60
2018-11-22T23:36:08.612Z,3.60
2018-11-22T23:38:37.054Z,3.60
2018-11-22T23:41:05.640Z,3.70
2018-11-22T23:43:34.113Z,3.60
2018-11-22T23:46:02.588Z,3.70
2018-11-22T23:48:31.117Z,3.60
2018-11-22T23:50:59.584Z,3.60
2018-11-22T23:53:28.061Z,3.70
2018-11-22T23:55:56.526Z,3.70
2018-11-22T23:58:24.999Z,3.70
